sensor_id;sensor_type;location;lat;lon;timestamp;P1;durP1;ratioP1;P2;durP2;ratioP2
13263;SDS011;6700;51.988;7.646;2022-09-09T00:10:08;4.17;;;2.23;;
13263;SDS011;6700;51.988;7.646;2022-09-09T00:15:13;4.53;;;2.30;;
13263;SDS011;6700;51.988;7.646;2022-09-09T00:22:46;4.03;;;2.40;;
13263;SDS011;6700;51.988;7.646;2022-09-09T00:28:19;5.57;;;2.67;;
13263;SDS011;6700;51.988;7.646;2022-09-09T00:30:48;5.70;;;2.40;;
13263;SDS011;6700;51.988;7.646;2022-09-09T00:33:22;4.90;;;2.20;;
13263;SDS011;6700;51.988;7.646;2022-09-09T00:35:51;3.67;;;2.17;;
13263;SDS011;6700;51.988;7.646;2022-09-09T00:40:50;5.03;;;2.30;;
13263;SDS011;6700;51.988;7.646;2022-09-09T00:43:32;4.03;;;2.33;;
13263;SDS011;6700;51.988;7.646;2022-09-09T00:57:10;3.20;;;2.20;;
13263;SDS011;6700;51.988;7.646;2022-09-09T00:59:46;5.07;;;2.37;;
13263;SDS011;6700;51.988;7.646;2022-09-09T01:05:12;4.17;;;2.13;;
13263;SDS011;6700;51.988;7.646;2022-09-09T01:07:47;2.77;;;1.83;;
13263;SDS011;6700;51.988;7.646;2022-09-09T01:13:22;2.23;;;1.97;;
13263;SDS011;6700;51.988;7.646;2022-09-09T01:15:52;4.13;;;2.33;;
13263;SDS011;6700;51.988;7.646;2022-09-09T01:18:27;3.67;;;3.10;;
13263;SDS011;6700;51.988;7.646;2022-09-09T01:29:04;3.70;;;1.90;;
13263;SDS011;6700;51.988;7.646;2022-09-09T01:31:57;2.37;;;1.50;;
13263;SDS011;6700;51.988;7.646;2022-09-09T01:34:27;2.43;;;1.73;;
13263;SDS011;6700;51.988;7.646;2022-09-09T01:36:58;3.87;;;1.50;;
13263;SDS011;6700;51.988;7.646;2022-09-09T01:39:28;3.87;;;1.73;;
13263;SDS011;6700;51.988;7.646;2022-09-09T01:41:55;3.00;;;1.73;;
13263;SDS011;6700;51.988;7.646;2022-09-09T01:44:23;2.40;;;1.73;;
13263;SDS011;6700;51.988;7.646;2022-09-09T01:46:51;1.83;;;1.67;;
13263;SDS011;6700;51.988;7.646;2022-09-09T01:49:18;2.93;;;2.37;;
13263;SDS011;6700;51.988;7.646;2022-09-09T01:51:46;2.60;;;1.63;;
13263;SDS011;6700;51.988;7.646;2022-09-09T01:54:17;2.57;;;1.77;;
13263;SDS011;6700;51.988;7.646;2022-09-09T01:59:42;1.50;;;1.40;;
13263;SDS011;6700;51.988;7.646;2022-09-09T02:08:07;1.70;;;1.60;;
13263;SDS011;6700;51.988;7.646;2022-09-09T02:10:39;2.73;;;1.50;;
13263;SDS011;6700;51.988;7.646;2022-09-09T02:13:12;2.07;;;1.60;;
13263;SDS011;6700;51.988;7.646;2022-09-09T02:15:45;1.83;;;1.30;;
13263;SDS011;6700;51.988;7.646;2022-09-09T02:18:21;1.73;;;1.63;;
13263;SDS011;6700;51.988;7.646;2022-09-09T02:20:53;1.73;;;1.50;;
13263;SDS011;6700;51.988;7.646;2022-09-09T02:23:22;2.40;;;1.53;;
13263;SDS011;6700;51.988;7.646;2022-09-09T02:25:49;2.03;;;1.43;;
13263;SDS011;6700;51.988;7.646;2022-09-09T02:28:19;3.03;;;1.73;;
13263;SDS011;6700;51.988;7.646;2022-09-09T02:30:49;3.33;;;2.17;;
13263;SDS011;6700;51.988;7.646;2022-09-09T02:33:25;3.13;;;1.70;;
13263;SDS011;6700;51.988;7.646;2022-09-09T02:35:56;2.13;;;1.80;;
13263;SDS011;6700;51.988;7.646;2022-09-09T02:38:30;1.87;;;1.50;;
13263;SDS011;6700;51.988;7.646;2022-09-09T02:41:01;2.80;;;1.70;;
13263;SDS011;6700;51.988;7.646;2022-09-09T02:43:32;3.80;;;1.77;;
13263;SDS011;6700;51.988;7.646;2022-09-09T02:46:22;2.43;;;1.80;;
13263;SDS011;6700;51.988;7.646;2022-09-09T02:48:58;3.30;;;2.20;;
13263;SDS011;6700;51.988;7.646;2022-09-09T02:51:32;1.93;;;1.33;;
13263;SDS011;6700;51.988;7.646;2022-09-09T02:56:38;3.40;;;1.70;;
13263;SDS011;6700;51.988;7.646;2022-09-09T02:59:10;2.83;;;1.60;;
13263;SDS011;6700;51.988;7.646;2022-09-09T03:01:37;4.67;;;1.90;;
13263;SDS011;6700;51.988;7.646;2022-09-09T03:04:06;2.70;;;1.90;;
13263;SDS011;6700;51.988;7.646;2022-09-09T03:06:32;2.80;;;1.73;;
13263;SDS011;6700;51.988;7.646;2022-09-09T03:08:59;2.30;;;1.63;;
13263;SDS011;6700;51.988;7.646;2022-09-09T03:11:28;2.13;;;1.80;;
13263;SDS011;6700;51.988;7.646;2022-09-09T03:13:55;2.07;;;1.67;;
13263;SDS011;6700;51.988;7.646;2022-09-09T03:16:26;2.10;;;1.50;;
13263;SDS011;6700;51.988;7.646;2022-09-09T03:18:53;2.97;;;2.20;;
13263;SDS011;6700;51.988;7.646;2022-09-09T03:21:20;4.73;;;1.80;;
13263;SDS011;6700;51.988;7.646;2022-09-09T03:23:47;3.87;;;2.10;;
13263;SDS011;6700;51.988;7.646;2022-09-09T03:26:14;3.50;;;2.10;;
13263;SDS011;6700;51.988;7.646;2022-09-09T03:28:41;2.20;;;2.00;;
13263;SDS011;6700;51.988;7.646;2022-09-09T03:31:09;3.90;;;2.33;;
13263;SDS011;6700;51.988;7.646;2022-09-09T03:33:37;3.20;;;2.60;;
13263;SDS011;6700;51.988;7.646;2022-09-09T03:36:05;2.83;;;2.43;;
13263;SDS011;6700;51.988;7.646;2022-09-09T03:38:33;5.70;;;3.20;;
13263;SDS011;6700;51.988;7.646;2022-09-09T03:41:00;8.23;;;3.30;;
13263;SDS011;6700;51.988;7.646;2022-09-09T03:43:28;3.00;;;2.80;;
13263;SDS011;6700;51.988;7.646;2022-09-09T03:45:55;4.97;;;2.60;;
13263;SDS011;6700;51.988;7.646;2022-09-09T03:48:25;3.27;;;2.97;;
13263;SDS011;6700;51.988;7.646;2022-09-09T03:50:55;4.13;;;3.27;;
13263;SDS011;6700;51.988;7.646;2022-09-09T03:53:24;3.43;;;3.13;;
13263;SDS011;6700;51.988;7.646;2022-09-09T03:55:52;7.47;;;3.30;;
13263;SDS011;6700;51.988;7.646;2022-09-09T03:58:22;4.63;;;3.43;;
13263;SDS011;6700;51.988;7.646;2022-09-09T04:00:57;6.60;;;3.70;;
13263;SDS011;6700;51.988;7.646;2022-09-09T04:03:25;7.37;;;3.90;;
13263;SDS011;6700;51.988;7.646;2022-09-09T04:05:54;5.27;;;4.07;;
13263;SDS011;6700;51.988;7.646;2022-09-09T04:08:24;5.53;;;3.93;;
13263;SDS011;6700;51.988;7.646;2022-09-09T04:10:54;4.10;;;3.70;;
13263;SDS011;6700;51.988;7.646;2022-09-09T04:13:24;4.60;;;3.90;;
13263;SDS011;6700;51.988;7.646;2022-09-09T04:15:53;5.43;;;4.23;;
13263;SDS011;6700;51.988;7.646;2022-09-09T04:18:23;4.63;;;3.97;;
13263;SDS011;6700;51.988;7.646;2022-09-09T04:20:51;8.13;;;5.03;;
13263;SDS011;6700;51.988;7.646;2022-09-09T04:23:19;4.27;;;3.87;;
13263;SDS011;6700;51.988;7.646;2022-09-09T04:25:47;6.53;;;4.63;;
13263;SDS011;6700;51.988;7.646;2022-09-09T04:28:15;5.10;;;4.03;;
13263;SDS011;6700;51.988;7.646;2022-09-09T04:30:43;5.73;;;4.30;;
13263;SDS011;6700;51.988;7.646;2022-09-09T04:33:11;5.13;;;4.03;;
13263;SDS011;6700;51.988;7.646;2022-09-09T04:35:38;5.50;;;4.10;;
13263;SDS011;6700;51.988;7.646;2022-09-09T04:38:09;8.10;;;4.20;;
13263;SDS011;6700;51.988;7.646;2022-09-09T04:40:36;4.83;;;4.07;;
13263;SDS011;6700;51.988;7.646;2022-09-09T04:43:09;4.60;;;3.27;;
13263;SDS011;6700;51.988;7.646;2022-09-09T04:45:40;6.40;;;3.50;;
13263;SDS011;6700;51.988;7.646;2022-09-09T04:48:07;6.87;;;3.67;;
13263;SDS011;6700;51.988;7.646;2022-09-09T04:50:35;4.13;;;3.50;;
13263;SDS011;6700;51.988;7.646;2022-09-09T04:53:03;5.50;;;3.67;;
13263;SDS011;6700;51.988;7.646;2022-09-09T04:55:31;4.83;;;3.20;;
13263;SDS011;6700;51.988;7.646;2022-09-09T04:58:06;5.27;;;3.33;;
13263;SDS011;6700;51.988;7.646;2022-09-09T05:00:34;4.87;;;3.37;;
13263;SDS011;6700;51.988;7.646;2022-09-09T05:03:03;3.67;;;3.33;;
13263;SDS011;6700;51.988;7.646;2022-09-09T05:05:32;6.67;;;3.77;;
13263;SDS011;6700;51.988;7.646;2022-09-09T05:08:02;5.57;;;3.40;;
13263;SDS011;6700;51.988;7.646;2022-09-09T05:10:31;5.40;;;2.97;;
13263;SDS011;6700;51.988;7.646;2022-09-09T05:12:58;4.93;;;3.07;;
13263;SDS011;6700;51.988;7.646;2022-09-09T05:15:25;4.67;;;3.30;;
13263;SDS011;6700;51.988;7.646;2022-09-09T05:17:52;7.93;;;3.17;;
13263;SDS011;6700;51.988;7.646;2022-09-09T05:20:19;3.40;;;2.67;;
13263;SDS011;6700;51.988;7.646;2022-09-09T05:22:46;5.67;;;3.57;;
13263;SDS011;6700;51.988;7.646;2022-09-09T05:25:14;7.47;;;3.20;;
13263;SDS011;6700;51.988;7.646;2022-09-09T05:27:41;5.40;;;3.50;;
13263;SDS011;6700;51.988;7.646;2022-09-09T05:30:08;3.80;;;3.43;;
13263;SDS011;6700;51.988;7.646;2022-09-09T05:32:35;9.40;;;3.70;;
13263;SDS011;6700;51.988;7.646;2022-09-09T05:35:02;4.13;;;2.80;;
13263;SDS011;6700;51.988;7.646;2022-09-09T05:37:30;5.00;;;2.77;;
13263;SDS011;6700;51.988;7.646;2022-09-09T05:39:57;4.83;;;2.93;;
13263;SDS011;6700;51.988;7.646;2022-09-09T05:42:24;3.50;;;2.73;;
13263;SDS011;6700;51.988;7.646;2022-09-09T05:44:58;6.43;;;3.03;;
13263;SDS011;6700;51.988;7.646;2022-09-09T05:47:26;7.27;;;3.23;;
13263;SDS011;6700;51.988;7.646;2022-09-09T05:49:55;5.77;;;3.10;;
13263;SDS011;6700;51.988;7.646;2022-09-09T05:52:22;5.03;;;3.10;;
13263;SDS011;6700;51.988;7.646;2022-09-09T05:54:50;6.70;;;2.80;;
13263;SDS011;6700;51.988;7.646;2022-09-09T05:57:17;6.30;;;3.00;;
13263;SDS011;6700;51.988;7.646;2022-09-09T05:59:45;7.37;;;2.97;;
13263;SDS011;6700;51.988;7.646;2022-09-09T06:02:12;4.30;;;3.17;;
13263;SDS011;6700;51.988;7.646;2022-09-09T06:04:39;3.83;;;2.30;;
13263;SDS011;6700;51.988;7.646;2022-09-09T06:07:06;6.93;;;2.80;;
13263;SDS011;6700;51.988;7.646;2022-09-09T06:09:33;8.17;;;3.00;;
13263;SDS011;6700;51.988;7.646;2022-09-09T06:12:00;5.63;;;3.40;;
13263;SDS011;6700;51.988;7.646;2022-09-09T06:14:27;6.90;;;2.77;;
13263;SDS011;6700;51.988;7.646;2022-09-09T06:16:53;5.57;;;3.50;;
13263;SDS011;6700;51.988;7.646;2022-09-09T06:19:20;4.73;;;3.13;;
13263;SDS011;6700;51.988;7.646;2022-09-09T06:21:47;8.87;;;2.80;;
13263;SDS011;6700;51.988;7.646;2022-09-09T06:24:15;6.33;;;2.77;;
13263;SDS011;6700;51.988;7.646;2022-09-09T06:26:43;6.27;;;3.00;;
13263;SDS011;6700;51.988;7.646;2022-09-09T06:29:11;4.20;;;2.80;;
13263;SDS011;6700;51.988;7.646;2022-09-09T06:31:38;8.80;;;2.67;;
13263;SDS011;6700;51.988;7.646;2022-09-09T06:34:06;6.13;;;2.67;;
13263;SDS011;6700;51.988;7.646;2022-09-09T06:36:34;7.07;;;2.53;;
13263;SDS011;6700;51.988;7.646;2022-09-09T06:39:03;4.70;;;2.80;;
13263;SDS011;6700;51.988;7.646;2022-09-09T06:41:36;7.47;;;3.03;;
13263;SDS011;6700;51.988;7.646;2022-09-09T06:44:04;6.10;;;2.53;;
13263;SDS011;6700;51.988;7.646;2022-09-09T06:46:31;4.27;;;2.70;;
13263;SDS011;6700;51.988;7.646;2022-09-09T06:48:59;4.63;;;2.73;;
13263;SDS011;6700;51.988;7.646;2022-09-09T06:51:27;6.47;;;2.63;;
13263;SDS011;6700;51.988;7.646;2022-09-09T06:53:57;6.37;;;3.07;;
13263;SDS011;6700;51.988;7.646;2022-09-09T06:56:27;6.13;;;3.37;;
13263;SDS011;6700;51.988;7.646;2022-09-09T06:58:56;5.23;;;3.17;;
13263;SDS011;6700;51.988;7.646;2022-09-09T07:01:25;5.77;;;2.77;;
13263;SDS011;6700;51.988;7.646;2022-09-09T07:03:55;4.33;;;2.53;;
13263;SDS011;6700;51.988;7.646;2022-09-09T07:06:27;5.43;;;2.57;;
13263;SDS011;6700;51.988;7.646;2022-09-09T07:08:58;4.53;;;2.40;;
13263;SDS011;6700;51.988;7.646;2022-09-09T07:11:28;4.87;;;3.07;;
13263;SDS011;6700;51.988;7.646;2022-09-09T07:13:58;2.87;;;2.13;;
13263;SDS011;6700;51.988;7.646;2022-09-09T07:16:28;5.67;;;2.83;;
13263;SDS011;6700;51.988;7.646;2022-09-09T07:18:55;6.43;;;2.80;;
13263;SDS011;6700;51.988;7.646;2022-09-09T07:21:27;5.07;;;2.50;;
13263;SDS011;6700;51.988;7.646;2022-09-09T07:23:55;5.57;;;2.27;;
13263;SDS011;6700;51.988;7.646;2022-09-09T07:26:23;8.27;;;2.67;;
13263;SDS011;6700;51.988;7.646;2022-09-09T07:28:53;8.83;;;2.60;;
13263;SDS011;6700;51.988;7.646;2022-09-09T07:31:22;5.63;;;2.43;;
13263;SDS011;6700;51.988;7.646;2022-09-09T07:33:53;4.57;;;2.60;;
13263;SDS011;6700;51.988;7.646;2022-09-09T07:36:21;6.70;;;2.83;;
13263;SDS011;6700;51.988;7.646;2022-09-09T07:38:50;6.53;;;2.43;;
13263;SDS011;6700;51.988;7.646;2022-09-09T07:41:23;6.83;;;2.30;;
13263;SDS011;6700;51.988;7.646;2022-09-09T07:43:51;4.50;;;2.47;;
13263;SDS011;6700;51.988;7.646;2022-09-09T07:46:20;9.57;;;2.40;;
13263;SDS011;6700;51.988;7.646;2022-09-09T07:48:50;5.97;;;2.57;;
13263;SDS011;6700;51.988;7.646;2022-09-09T07:51:20;7.13;;;2.30;;
13263;SDS011;6700;51.988;7.646;2022-09-09T07:53:58;5.43;;;2.30;;
13263;SDS011;6700;51.988;7.646;2022-09-09T07:56:28;10.53;;;4.20;;
13263;SDS011;6700;51.988;7.646;2022-09-09T07:58:59;3.63;;;2.27;;
13263;SDS011;6700;51.988;7.646;2022-09-09T08:01:29;7.17;;;2.40;;
13263;SDS011;6700;51.988;7.646;2022-09-09T08:04:04;5.13;;;2.13;;
13263;SDS011;6700;51.988;7.646;2022-09-09T08:06:37;3.87;;;2.00;;
13263;SDS011;6700;51.988;7.646;2022-09-09T08:09:06;8.17;;;2.60;;
13263;SDS011;6700;51.988;7.646;2022-09-09T08:11:36;4.87;;;2.57;;
13263;SDS011;6700;51.988;7.646;2022-09-09T08:14:05;4.77;;;2.03;;
13263;SDS011;6700;51.988;7.646;2022-09-09T08:16:35;3.87;;;2.17;;
13263;SDS011;6700;51.988;7.646;2022-09-09T08:19:06;4.60;;;2.63;;
13263;SDS011;6700;51.988;7.646;2022-09-09T08:21:34;5.00;;;2.47;;
13263;SDS011;6700;51.988;7.646;2022-09-09T08:24:03;3.27;;;2.10;;
13263;SDS011;6700;51.988;7.646;2022-09-09T08:26:34;8.47;;;2.53;;
13263;SDS011;6700;51.988;7.646;2022-09-09T08:29:08;8.07;;;2.13;;
13263;SDS011;6700;51.988;7.646;2022-09-09T08:31:37;6.57;;;2.60;;
13263;SDS011;6700;51.988;7.646;2022-09-09T08:34:06;6.33;;;2.27;;
13263;SDS011;6700;51.988;7.646;2022-09-09T08:36:35;4.27;;;2.30;;
13263;SDS011;6700;51.988;7.646;2022-09-09T08:39:05;8.60;;;2.27;;
13263;SDS011;6700;51.988;7.646;2022-09-09T08:41:49;6.90;;;1.97;;
13263;SDS011;6700;51.988;7.646;2022-09-09T08:58:21;6.70;;;3.15;;
13263;SDS011;6700;51.988;7.646;2022-09-09T09:11:56;3.67;;;2.45;;
13263;SDS011;6700;51.988;7.646;2022-09-09T09:14:28;10.52;;;2.30;;
13263;SDS011;6700;51.988;7.646;2022-09-09T09:17:01;4.75;;;2.30;;
13263;SDS011;6700;51.988;7.646;2022-09-09T09:19:29;4.75;;;2.20;;
13263;SDS011;6700;51.988;7.646;2022-09-09T09:22:00;4.45;;;2.10;;
13263;SDS011;6700;51.988;7.646;2022-09-09T09:24:45;2.75;;;2.20;;
13263;SDS011;6700;51.988;7.646;2022-09-09T09:27:21;4.53;;;2.08;;
13263;SDS011;6700;51.988;7.646;2022-09-09T09:30:00;8.82;;;2.53;;
13263;SDS011;6700;51.988;7.646;2022-09-09T09:35:26;4.10;;;1.95;;
13263;SDS011;6700;51.988;7.646;2022-09-09T09:37:53;4.95;;;2.00;;
13263;SDS011;6700;51.988;7.646;2022-09-09T09:40:47;5.32;;;2.50;;
13263;SDS011;6700;51.988;7.646;2022-09-09T09:43:18;3.05;;;2.08;;
13263;SDS011;6700;51.988;7.646;2022-09-09T09:45:50;3.20;;;1.58;;
13263;SDS011;6700;51.988;7.646;2022-09-09T09:48:37;9.00;;;2.08;;
13263;SDS011;6700;51.988;7.646;2022-09-09T09:51:08;4.95;;;2.35;;
13263;SDS011;6700;51.988;7.646;2022-09-09T09:53:39;4.88;;;2.60;;
13263;SDS011;6700;51.988;7.646;2022-09-09T09:56:12;3.00;;;2.10;;
13263;SDS011;6700;51.988;7.646;2022-09-09T10:01:23;3.72;;;1.98;;
13263;SDS011;6700;51.988;7.646;2022-09-09T10:03:55;6.15;;;1.95;;
13263;SDS011;6700;51.988;7.646;2022-09-09T10:06:35;3.28;;;1.70;;
13263;SDS011;6700;51.988;7.646;2022-09-09T10:09:17;7.22;;;2.30;;
13263;SDS011;6700;51.988;7.646;2022-09-09T10:14:20;4.22;;;2.35;;
13263;SDS011;6700;51.988;7.646;2022-09-09T10:16:54;3.65;;;2.00;;
13263;SDS011;6700;51.988;7.646;2022-09-09T10:19:33;7.10;;;2.15;;
13263;SDS011;6700;51.988;7.646;2022-09-09T10:25:10;4.68;;;1.95;;
13263;SDS011;6700;51.988;7.646;2022-09-09T10:28:06;3.42;;;1.73;;
13263;SDS011;6700;51.988;7.646;2022-09-09T10:30:46;6.20;;;2.20;;
13263;SDS011;6700;51.988;7.646;2022-09-09T10:33:44;5.57;;;1.77;;
13263;SDS011;6700;51.988;7.646;2022-09-09T10:36:29;3.58;;;2.08;;
13263;SDS011;6700;51.988;7.646;2022-09-09T10:39:00;3.67;;;1.80;;
13263;SDS011;6700;51.988;7.646;2022-09-09T10:52:47;4.40;;;2.33;;
13263;SDS011;6700;51.988;7.646;2022-09-09T10:55:20;7.88;;;2.40;;
13263;SDS011;6700;51.988;7.646;2022-09-09T10:57:55;5.57;;;2.95;;
13263;SDS011;6700;51.988;7.646;2022-09-09T11:01:12;5.03;;;2.33;;
13263;SDS011;6700;51.988;7.646;2022-09-09T11:03:17;5.88;;;2.80;;
13263;SDS011;6700;51.988;7.646;2022-09-09T11:05:52;3.20;;;1.88;;
13263;SDS011;6700;51.988;7.646;2022-09-09T11:08:24;1.90;;;1.80;;
13263;SDS011;6700;51.988;7.646;2022-09-09T11:18:47;4.72;;;2.22;;
13263;SDS011;6700;51.988;7.646;2022-09-09T11:21:26;4.22;;;1.85;;
13263;SDS011;6700;51.988;7.646;2022-09-09T11:24:12;3.60;;;1.98;;
13263;SDS011;6700;51.988;7.646;2022-09-09T11:27:05;4.32;;;2.25;;
13263;SDS011;6700;51.988;7.646;2022-09-09T11:34:52;4.05;;;2.60;;
13263;SDS011;6700;51.988;7.646;2022-09-09T11:42:41;4.30;;;2.60;;
13263;SDS011;6700;51.988;7.646;2022-09-09T11:45:10;3.28;;;2.20;;
13263;SDS011;6700;51.988;7.646;2022-09-09T11:47:51;3.90;;;2.30;;
13263;SDS011;6700;51.988;7.646;2022-09-09T11:52:49;5.93;;;2.20;;
13263;SDS011;6700;51.988;7.646;2022-09-09T11:55:27;5.30;;;2.13;;
13263;SDS011;6700;51.988;7.646;2022-09-09T11:57:58;4.43;;;2.95;;
13263;SDS011;6700;51.988;7.646;2022-09-09T12:03:33;5.25;;;2.42;;
13263;SDS011;6700;51.988;7.646;2022-09-09T12:06:10;6.20;;;3.22;;
13263;SDS011;6700;51.988;7.646;2022-09-09T12:08:44;2.88;;;1.77;;
13263;SDS011;6700;51.988;7.646;2022-09-09T12:11:28;3.35;;;2.05;;
13263;SDS011;6700;51.988;7.646;2022-09-09T12:13:57;4.80;;;2.08;;
13263;SDS011;6700;51.988;7.646;2022-09-09T12:22:00;2.58;;;1.60;;
13263;SDS011;6700;51.988;7.646;2022-09-09T12:24:35;2.97;;;1.50;;
13263;SDS011;6700;51.988;7.646;2022-09-09T12:27:12;3.75;;;1.45;;
13263;SDS011;6700;51.988;7.646;2022-09-09T12:29:53;2.65;;;1.48;;
13263;SDS011;6700;51.988;7.646;2022-09-09T12:32:28;3.75;;;1.63;;
13263;SDS011;6700;51.988;7.646;2022-09-09T12:35:00;4.95;;;1.77;;
13263;SDS011;6700;51.988;7.646;2022-09-09T12:42:49;3.53;;;1.25;;
13263;SDS011;6700;51.988;7.646;2022-09-09T12:50:30;2.22;;;1.13;;
13263;SDS011;6700;51.988;7.646;2022-09-09T12:53:00;6.10;;;1.65;;
13263;SDS011;6700;51.988;7.646;2022-09-09T12:55:35;2.58;;;1.48;;
13263;SDS011;6700;51.988;7.646;2022-09-09T12:58:04;2.55;;;1.33;;
13263;SDS011;6700;51.988;7.646;2022-09-09T13:00:33;8.35;;;1.73;;
13263;SDS011;6700;51.988;7.646;2022-09-09T13:03:02;1.35;;;1.25;;
13263;SDS011;6700;51.988;7.646;2022-09-09T13:05:42;5.35;;;1.75;;
13263;SDS011;6700;51.988;7.646;2022-09-09T13:08:10;2.40;;;1.50;;
13263;SDS011;6700;51.988;7.646;2022-09-09T13:11:21;3.05;;;1.80;;
13263;SDS011;6700;51.988;7.646;2022-09-09T13:13:35;4.22;;;1.48;;
13263;SDS011;6700;51.988;7.646;2022-09-09T13:16:21;3.42;;;1.80;;
13263;SDS011;6700;51.988;7.646;2022-09-09T13:18:52;2.83;;;1.52;;
13263;SDS011;6700;51.988;7.646;2022-09-09T13:21:19;2.05;;;1.35;;
13263;SDS011;6700;51.988;7.646;2022-09-09T13:23:56;3.25;;;1.50;;
13263;SDS011;6700;51.988;7.646;2022-09-09T13:26:26;2.88;;;1.60;;
13263;SDS011;6700;51.988;7.646;2022-09-09T13:28:53;2.97;;;1.30;;
13263;SDS011;6700;51.988;7.646;2022-09-09T13:31:34;1.73;;;1.40;;
13263;SDS011;6700;51.988;7.646;2022-09-09T13:36:57;6.60;;;2.90;;
13263;SDS011;6700;51.988;7.646;2022-09-09T13:39:35;6.38;;;2.60;;
13263;SDS011;6700;51.988;7.646;2022-09-09T13:42:03;3.80;;;2.08;;
13263;SDS011;6700;51.988;7.646;2022-09-09T13:44:36;2.80;;;2.23;;
13263;SDS011;6700;51.988;7.646;2022-09-09T13:49:47;5.07;;;2.93;;
13263;SDS011;6700;51.988;7.646;2022-09-09T13:52:15;4.13;;;2.37;;
13263;SDS011;6700;51.988;7.646;2022-09-09T13:54:46;5.77;;;2.63;;
13263;SDS011;6700;51.988;7.646;2022-09-09T13:59:48;4.23;;;2.30;;
13263;SDS011;6700;51.988;7.646;2022-09-09T14:02:31;6.53;;;2.80;;
13263;SDS011;6700;51.988;7.646;2022-09-09T14:04:59;3.00;;;2.30;;
13263;SDS011;6700;51.988;7.646;2022-09-09T14:07:26;3.17;;;2.30;;
13263;SDS011;6700;51.988;7.646;2022-09-09T14:09:53;3.40;;;2.25;;
13263;SDS011;6700;51.988;7.646;2022-09-09T14:12:20;3.90;;;2.45;;
13263;SDS011;6700;51.988;7.646;2022-09-09T14:14:47;4.30;;;2.60;;
13263;SDS011;6700;51.988;7.646;2022-09-09T14:17:14;4.07;;;2.63;;
13263;SDS011;6700;51.988;7.646;2022-09-09T14:19:42;6.22;;;2.65;;
13263;SDS011;6700;51.988;7.646;2022-09-09T14:22:12;6.13;;;3.20;;
13263;SDS011;6700;51.988;7.646;2022-09-09T14:24:40;3.93;;;2.20;;
13263;SDS011;6700;51.988;7.646;2022-09-09T14:27:09;3.70;;;2.50;;
13263;SDS011;6700;51.988;7.646;2022-09-09T14:29:35;2.63;;;1.98;;
13263;SDS011;6700;51.988;7.646;2022-09-09T14:32:03;3.27;;;2.23;;
13263;SDS011;6700;51.988;7.646;2022-09-09T14:34:37;5.20;;;1.97;;
13263;SDS011;6700;51.988;7.646;2022-09-09T14:37:04;3.00;;;1.80;;
13263;SDS011;6700;51.988;7.646;2022-09-09T14:39:31;6.47;;;2.00;;
13263;SDS011;6700;51.988;7.646;2022-09-09T14:42:01;4.27;;;1.77;;
13263;SDS011;6700;51.988;7.646;2022-09-09T14:44:28;3.93;;;2.00;;
13263;SDS011;6700;51.988;7.646;2022-09-09T14:46:55;3.03;;;1.77;;
13263;SDS011;6700;51.988;7.646;2022-09-09T14:49:23;3.27;;;1.70;;
13263;SDS011;6700;51.988;7.646;2022-09-09T14:51:51;2.00;;;1.80;;
13263;SDS011;6700;51.988;7.646;2022-09-09T14:54:17;2.40;;;1.60;;
13263;SDS011;6700;51.988;7.646;2022-09-09T14:56:44;3.27;;;1.90;;
13263;SDS011;6700;51.988;7.646;2022-09-09T14:59:11;2.37;;;1.40;;
13263;SDS011;6700;51.988;7.646;2022-09-09T15:01:39;2.40;;;1.50;;
13263;SDS011;6700;51.988;7.646;2022-09-09T15:04:06;6.40;;;2.10;;
13263;SDS011;6700;51.988;7.646;2022-09-09T15:06:34;3.60;;;1.70;;
13263;SDS011;6700;51.988;7.646;2022-09-09T15:09:04;4.43;;;1.93;;
13263;SDS011;6700;51.988;7.646;2022-09-09T15:11:33;2.83;;;1.57;;
13263;SDS011;6700;51.988;7.646;2022-09-09T15:14:05;2.57;;;1.87;;
13263;SDS011;6700;51.988;7.646;2022-09-09T15:16:33;2.00;;;1.80;;
13263;SDS011;6700;51.988;7.646;2022-09-09T15:19:02;3.90;;;1.50;;
13263;SDS011;6700;51.988;7.646;2022-09-09T15:21:31;4.13;;;1.80;;
13263;SDS011;6700;51.988;7.646;2022-09-09T15:23:59;3.73;;;1.87;;
13263;SDS011;6700;51.988;7.646;2022-09-09T15:26:26;2.80;;;1.77;;
13263;SDS011;6700;51.988;7.646;2022-09-09T15:28:54;3.43;;;1.60;;
13263;SDS011;6700;51.988;7.646;2022-09-09T15:31:24;3.20;;;1.87;;
13263;SDS011;6700;51.988;7.646;2022-09-09T15:33:55;1.77;;;1.60;;
13263;SDS011;6700;51.988;7.646;2022-09-09T15:36:34;2.70;;;1.60;;
13263;SDS011;6700;51.988;7.646;2022-09-09T15:39:06;3.03;;;1.90;;
13263;SDS011;6700;51.988;7.646;2022-09-09T15:41:39;3.47;;;1.70;;
13263;SDS011;6700;51.988;7.646;2022-09-09T15:44:05;4.03;;;2.03;;
13263;SDS011;6700;51.988;7.646;2022-09-09T15:46:38;5.50;;;2.27;;
13263;SDS011;6700;51.988;7.646;2022-09-09T15:49:22;2.20;;;1.60;;
13263;SDS011;6700;51.988;7.646;2022-09-09T15:51:53;3.33;;;2.00;;
13263;SDS011;6700;51.988;7.646;2022-09-09T15:54:22;2.93;;;1.97;;
13263;SDS011;6700;51.988;7.646;2022-09-09T15:56:54;3.23;;;1.73;;
13263;SDS011;6700;51.988;7.646;2022-09-09T15:59:23;2.97;;;1.80;;
13263;SDS011;6700;51.988;7.646;2022-09-09T16:01:51;2.50;;;2.30;;
13263;SDS011;6700;51.988;7.646;2022-09-09T16:04:18;3.43;;;2.10;;
13263;SDS011;6700;51.988;7.646;2022-09-09T16:06:54;3.23;;;2.10;;
13263;SDS011;6700;51.988;7.646;2022-09-09T16:09:24;4.57;;;1.77;;
13263;SDS011;6700;51.988;7.646;2022-09-09T16:11:54;2.57;;;2.00;;
13263;SDS011;6700;51.988;7.646;2022-09-09T16:14:26;5.43;;;1.90;;
13263;SDS011;6700;51.988;7.646;2022-09-09T16:16:54;2.60;;;1.73;;
13263;SDS011;6700;51.988;7.646;2022-09-09T16:19:23;6.23;;;1.80;;
13263;SDS011;6700;51.988;7.646;2022-09-09T16:21:51;2.13;;;2.00;;
13263;SDS011;6700;51.988;7.646;2022-09-09T16:24:19;2.80;;;2.10;;
13263;SDS011;6700;51.988;7.646;2022-09-09T16:26:48;2.90;;;2.00;;
13263;SDS011;6700;51.988;7.646;2022-09-09T16:29:17;3.17;;;1.90;;
13263;SDS011;6700;51.988;7.646;2022-09-09T16:31:45;3.47;;;2.00;;
13263;SDS011;6700;51.988;7.646;2022-09-09T16:34:16;3.87;;;2.00;;
13263;SDS011;6700;51.988;7.646;2022-09-09T16:36:46;3.97;;;2.27;;
13263;SDS011;6700;51.988;7.646;2022-09-09T16:39:15;4.50;;;2.17;;
13263;SDS011;6700;51.988;7.646;2022-09-09T16:41:46;3.00;;;2.10;;
13263;SDS011;6700;51.988;7.646;2022-09-09T16:44:15;3.20;;;1.90;;
13263;SDS011;6700;51.988;7.646;2022-09-09T16:46:45;2.73;;;2.10;;
13263;SDS011;6700;51.988;7.646;2022-09-09T16:49:15;4.83;;;2.50;;
13263;SDS011;6700;51.988;7.646;2022-09-09T16:51:43;4.73;;;2.60;;
13263;SDS011;6700;51.988;7.646;2022-09-09T16:54:16;4.70;;;2.40;;
13263;SDS011;6700;51.988;7.646;2022-09-09T16:56:44;4.17;;;2.13;;
13263;SDS011;6700;51.988;7.646;2022-09-09T16:59:16;3.63;;;2.10;;
13263;SDS011;6700;51.988;7.646;2022-09-09T17:01:46;3.17;;;2.70;;
13263;SDS011;6700;51.988;7.646;2022-09-09T17:04:20;14.13;;;3.50;;
13263;SDS011;6700;51.988;7.646;2022-09-09T17:06:51;3.53;;;2.37;;
13263;SDS011;6700;51.988;7.646;2022-09-09T17:09:19;5.47;;;2.83;;
13263;SDS011;6700;51.988;7.646;2022-09-09T17:11:49;7.07;;;3.43;;
13263;SDS011;6700;51.988;7.646;2022-09-09T17:14:18;6.07;;;2.83;;
13263;SDS011;6700;51.988;7.646;2022-09-09T17:16:45;5.50;;;2.90;;
13263;SDS011;6700;51.988;7.646;2022-09-09T17:19:13;7.00;;;2.60;;
13263;SDS011;6700;51.988;7.646;2022-09-09T17:21:40;6.47;;;2.83;;
13263;SDS011;6700;51.988;7.646;2022-09-09T17:24:27;3.93;;;2.40;;
13263;SDS011;6700;51.988;7.646;2022-09-09T17:26:55;5.47;;;2.60;;
13263;SDS011;6700;51.988;7.646;2022-09-09T17:29:23;3.87;;;2.70;;
13263;SDS011;6700;51.988;7.646;2022-09-09T17:31:52;4.30;;;2.57;;
13263;SDS011;6700;51.988;7.646;2022-09-09T17:34:20;3.10;;;2.00;;
13263;SDS011;6700;51.988;7.646;2022-09-09T17:36:47;5.20;;;2.30;;
13263;SDS011;6700;51.988;7.646;2022-09-09T17:39:14;3.63;;;2.20;;
13263;SDS011;6700;51.988;7.646;2022-09-09T17:41:41;3.90;;;2.30;;
13263;SDS011;6700;51.988;7.646;2022-09-09T17:44:08;1.97;;;1.83;;
13263;SDS011;6700;51.988;7.646;2022-09-09T17:46:39;5.10;;;2.00;;
13263;SDS011;6700;51.988;7.646;2022-09-09T17:49:10;3.37;;;2.30;;
13263;SDS011;6700;51.988;7.646;2022-09-09T17:51:41;7.23;;;2.20;;
13263;SDS011;6700;51.988;7.646;2022-09-09T17:54:10;2.67;;;1.80;;
13263;SDS011;6700;51.988;7.646;2022-09-09T17:56:41;4.47;;;2.33;;